This is the latest recevied weather packets stored in our database for station/object KY0TEQ-13. If no packets are shown the sender has not sent any weather packets the latest 10 day(s).
| Time | Temp. | Humidity | Pressure | Rain* | Wind** | Luminosity | Snow |
|---|---|---|---|---|---|---|---|
| 1788695156 | 11.11° C | 53% | 1309.4 hPa | 0 mm | - | 0 W/m² | - |
| 1788694851 | 12.22° C | 50% | 1309.4 hPa | 0 mm | - | 0 W/m² | - |
| 1788694550 | 11.11° C | 52% | 1309.3 hPa | 0 mm | - | 0 W/m² | - |
| 1788694245 | 11.67° C | 50% | 1309.6 hPa | 0 mm | - | 0 W/m² | - |
| 1788693940 | 11.11° C | 53% | 1309.3 hPa | 0 mm | - | 0 W/m² | - |
| 1788693637 | 10.56° C | 55% | 1309.5 hPa | 0 mm | - | 0 W/m² | - |
| 1788693336 | 11.11° C | 54% | 1309.4 hPa | 0 mm | - | 0 W/m² | - |
| 1788693032 | 11.11° C | 52% | 1309.4 hPa | 0 mm | - | 0 W/m² | - |
| 1788692731 | 11.67° C | 52% | 1309.3 hPa | 0 mm | - | 0 W/m² | - |
| 1788692457 | 11.11° C | 53% | 1309.4 hPa | 0 mm | - | 0 W/m² | - |
| 1788692126 | 12.78° C | 49% | 1309.3 hPa | 0 mm | - | 0 W/m² | - |
| 1788691822 | 12.78° C | 48% | 1309 hPa | 0 mm | - | 0 W/m² | - |
| 1788691520 | 13.33° C | 46% | 1309.3 hPa | 0 mm | - | 0 W/m² | - |
| 1788691215 | 13.33° C | 47% | 1309.1 hPa | 0 mm | - | 0 W/m² | - |
| 1788690913 | 13.33° C | 46% | 1308.9 hPa | 0 mm | - | 0 W/m² | - |
| 1788690609 | 13.33° C | 47% | 1309 hPa | 0 mm | - | 0 W/m² | - |
| 1788690309 | 13.33° C | 46% | 1308.9 hPa | 0 mm | - | 0 W/m² | - |
| 1788690009 | 13.33° C | 47% | 1309 hPa | 0 mm | - | 0 W/m² | - |
| 1788689703 | 13.33° C | 47% | 1308.9 hPa | 0 mm | - | 0 W/m² | - |
| 1788689399 | 13.33° C | 46% | 1309.1 hPa | 0 mm | - | 0 W/m² | - |
| 1788689094 | 12.78° C | 47% | 1309 hPa | 0 mm | - | 0 W/m² | - |
| 1788688794 | 12.78° C | 50% | 1308.9 hPa | 0 mm | - | 0 W/m² | - |
| 1788688489 | 13.33° C | 47% | 1308.8 hPa | 0 mm | - | 0 W/m² | - |
| 1788688184 | 13.33° C | 46% | 1308.9 hPa | 0 mm | - | 0 W/m² | - |
| 1788687878 | 14.44° C | 45% | 1308.8 hPa | 0 mm | - | 0 W/m² | - |
* Rain latest hour (hover to see other rain measurements)
** Current wind speed in m/s (hover to see current wind gust speed)